createdAt,value
2019-05-30T00:00:38.324Z,3.03
2019-05-30T00:01:45.823Z,2.87
2019-05-30T00:02:54.010Z,3.07
2019-05-30T00:04:03.181Z,4.17
2019-05-30T00:05:11.296Z,2.90
2019-05-30T00:06:19.899Z,4.30
2019-05-30T00:07:27.694Z,2.80
2019-05-30T00:08:35.102Z,2.77
2019-05-30T00:09:44.278Z,3.10
2019-05-30T00:10:51.668Z,2.80
2019-05-30T00:12:00.710Z,2.93
2019-05-30T00:13:08.353Z,2.83
2019-05-30T00:14:16.181Z,3.00
2019-05-30T00:15:23.661Z,2.83
2019-05-30T00:16:31.442Z,3.17
2019-05-30T00:17:38.885Z,3.20
2019-05-30T00:18:46.657Z,4.40
2019-05-30T00:19:55.047Z,2.93
2019-05-30T00:21:03.001Z,2.80
2019-05-30T00:22:10.377Z,3.17
2019-05-30T00:23:18.202Z,3.13
2019-05-30T00:24:25.680Z,3.30
2019-05-30T00:25:33.582Z,4.50
2019-05-30T00:26:40.989Z,3.20
2019-05-30T00:27:48.967Z,3.60
2019-05-30T00:28:56.459Z,3.20
2019-05-30T00:30:20.811Z,3.47
2019-05-30T00:31:15.072Z,3.17
2019-05-30T00:32:22.875Z,3.50
2019-05-30T00:33:30.295Z,4.10
2019-05-30T00:34:38.185Z,3.40
2019-05-30T00:35:45.677Z,3.70
2019-05-30T00:36:53.472Z,3.53
2019-05-30T00:38:01.930Z,3.60
2019-05-30T00:39:09.814Z,3.07
2019-05-30T00:40:17.475Z,3.27
2019-05-30T00:41:25.402Z,3.67
2019-05-30T00:42:32.800Z,4.63
2019-05-30T00:43:40.609Z,3.07
2019-05-30T00:44:48.019Z,3.40
2019-05-30T00:45:55.927Z,3.00
2019-05-30T00:47:04.484Z,3.30
2019-05-30T00:48:12.407Z,4.00
2019-05-30T00:49:19.827Z,3.33
2019-05-30T00:50:27.638Z,4.07
2019-05-30T00:51:35.083Z,3.53
2019-05-30T00:52:42.887Z,3.03
2019-05-30T00:53:50.311Z,3.60
2019-05-30T00:54:58.434Z,3.80
2019-05-30T00:56:06.849Z,3.30
2019-05-30T00:57:14.808Z,2.97
2019-05-30T00:58:23.474Z,3.00
2019-05-30T00:59:31.265Z,3.60
2019-05-30T01:00:43.576Z,3.70
2019-05-30T01:01:48.204Z,3.77
2019-05-30T01:02:59.339Z,3.17
2019-05-30T01:04:05.116Z,3.37
2019-05-30T01:05:12.751Z,3.97
2019-05-30T01:06:20.587Z,3.23
2019-05-30T01:07:27.995Z,3.67
2019-05-30T01:08:35.833Z,3.67
2019-05-30T01:09:43.449Z,3.27
2019-05-30T01:10:51.259Z,3.47
2019-05-30T01:11:59.121Z,4.43
2019-05-30T01:13:07.364Z,3.80
2019-05-30T01:14:14.858Z,4.13
2019-05-30T01:15:22.642Z,4.13
2019-05-30T01:16:30.059Z,4.03
2019-05-30T01:17:37.885Z,3.83
2019-05-30T01:18:45.293Z,3.87
2019-05-30T01:19:53.100Z,4.63
2019-05-30T01:21:01.329Z,3.33
2019-05-30T01:22:09.186Z,3.67
2019-05-30T01:23:16.628Z,3.43
2019-05-30T01:24:24.433Z,3.27
2019-05-30T01:25:32.813Z,4.93
2019-05-30T01:26:40.624Z,3.77
2019-05-30T01:27:48.034Z,3.10
2019-05-30T01:28:55.856Z,3.23
2019-05-30T01:30:03.694Z,3.63
2019-05-30T01:31:11.846Z,3.90
2019-05-30T01:32:29.042Z,3.57
2019-05-30T01:33:36.880Z,3.23
2019-05-30T01:34:44.316Z,3.50
2019-05-30T01:35:52.100Z,3.90
2019-05-30T01:36:59.881Z,3.43
2019-05-30T01:38:08.093Z,3.70
2019-05-30T01:39:15.725Z,3.87
2019-05-30T01:40:23.654Z,4.33
2019-05-30T01:41:31.085Z,3.43
2019-05-30T01:42:39.144Z,3.50
2019-05-30T01:43:46.583Z,3.50
2019-05-30T01:44:54.387Z,3.43
2019-05-30T01:46:02.119Z,3.33
2019-05-30T01:47:09.905Z,3.70
2019-05-30T01:48:17.326Z,3.70
2019-05-30T01:49:25.136Z,3.33
2019-05-30T01:50:32.557Z,3.43
2019-05-30T01:51:40.353Z,3.60
2019-05-30T01:52:47.760Z,3.57
2019-05-30T01:53:58.356Z,3.73
2019-05-30T01:55:04.900Z,3.70
2019-05-30T01:56:12.737Z,3.87
2019-05-30T01:57:20.117Z,3.50
2019-05-30T01:58:27.923Z,3.77
2019-05-30T01:59:35.343Z,3.70
2019-05-30T02:00:43.412Z,3.70
2019-05-30T02:01:50.996Z,3.73
2019-05-30T02:02:58.927Z,3.80
2019-05-30T02:04:07.314Z,3.30
2019-05-30T02:05:16.258Z,3.40
2019-05-30T02:06:23.768Z,3.80
2019-05-30T02:07:31.564Z,3.30
2019-05-30T02:08:38.983Z,3.27
2019-05-30T02:09:46.808Z,3.40
2019-05-30T02:10:54.222Z,2.87
2019-05-30T02:12:03.559Z,3.53
2019-05-30T02:13:11.224Z,4.40
2019-05-30T02:14:19.041Z,3.20
2019-05-30T02:15:26.477Z,3.50
2019-05-30T02:16:34.289Z,3.30
2019-05-30T02:17:41.693Z,3.73
2019-05-30T02:18:49.489Z,3.17
2019-05-30T02:19:56.897Z,3.33
2019-05-30T02:21:05.770Z,3.33
2019-05-30T02:22:13.391Z,3.43
2019-05-30T02:23:21.185Z,4.00
2019-05-30T02:24:28.589Z,3.27
2019-05-30T02:25:36.383Z,6.63
2019-05-30T02:26:43.809Z,4.00
2019-05-30T02:27:52.712Z,3.90
2019-05-30T02:29:00.102Z,3.63
2019-05-30T02:30:12.490Z,3.83
2019-05-30T02:31:37.798Z,3.97
2019-05-30T02:32:28.619Z,3.60
2019-05-30T02:33:36.057Z,3.87
2019-05-30T02:34:43.840Z,4.30
2019-05-30T02:35:51.259Z,4.57
2019-05-30T02:37:01.239Z,4.00
2019-05-30T02:38:09.981Z,4.07
2019-05-30T02:39:18.666Z,3.53
2019-05-30T02:40:27.076Z,3.97
2019-05-30T02:41:34.887Z,4.33
2019-05-30T02:42:42.324Z,4.00
2019-05-30T02:43:50.225Z,3.97
2019-05-30T02:44:57.646Z,3.40
2019-05-30T02:46:06.343Z,4.00
2019-05-30T02:47:14.530Z,3.63
2019-05-30T02:48:22.307Z,4.00
2019-05-30T02:49:29.764Z,3.47
2019-05-30T02:50:37.567Z,4.13
2019-05-30T02:51:44.973Z,3.83
2019-05-30T02:52:52.784Z,4.00
2019-05-30T02:54:01.553Z,4.13
2019-05-30T02:55:13.539Z,3.93
2019-05-30T02:56:20.884Z,3.83
2019-05-30T02:57:29.732Z,4.13
2019-05-30T02:58:37.141Z,3.10
2019-05-30T02:59:44.948Z,3.37
2019-05-30T03:00:52.338Z,3.20
2019-05-30T03:02:04.345Z,3.47
2019-05-30T03:03:12.363Z,3.53
2019-05-30T03:04:18.757Z,3.40
2019-05-30T03:05:26.177Z,3.63
2019-05-30T03:06:34.489Z,3.60
2019-05-30T03:07:42.009Z,3.50
2019-05-30T03:08:49.818Z,3.33
2019-05-30T03:09:57.223Z,3.47
2019-05-30T03:11:07.905Z,3.50
2019-05-30T03:12:14.351Z,3.23
2019-05-30T03:13:23.238Z,3.50
2019-05-30T03:14:31.048Z,3.97
2019-05-30T03:15:39.026Z,3.30
2019-05-30T03:16:46.439Z,4.13
2019-05-30T03:17:54.332Z,3.37
2019-05-30T03:19:03.719Z,3.73
2019-05-30T03:20:22.258Z,3.73
2019-05-30T03:21:22.060Z,3.73
2019-05-30T03:22:29.850Z,3.80
2019-05-30T03:23:37.268Z,3.63
2019-05-30T03:24:45.247Z,4.43
2019-05-30T03:25:52.665Z,3.97
2019-05-30T03:27:00.478Z,3.90
2019-05-30T03:28:09.121Z,3.87
2019-05-30T03:29:17.704Z,3.70
2019-05-30T03:30:28.940Z,3.63
2019-05-30T03:31:37.829Z,3.47
2019-05-30T03:33:05.996Z,4.00
2019-05-30T03:33:54.738Z,3.83
2019-05-30T03:35:06.119Z,3.30
2019-05-30T03:36:23.712Z,4.57
2019-05-30T03:37:28.790Z,3.53
2019-05-30T03:38:30.255Z,4.53
2019-05-30T03:39:37.666Z,3.83
2019-05-30T03:40:45.477Z,3.33
2019-05-30T03:41:52.893Z,4.80
2019-05-30T03:43:00.745Z,3.50
2019-05-30T03:44:09.036Z,3.87
2019-05-30T03:45:18.249Z,3.87
2019-05-30T03:46:30.889Z,3.50
2019-05-30T03:47:43.979Z,4.57
2019-05-30T03:48:56.151Z,4.00
2019-05-30T03:50:07.299Z,3.30
2019-05-30T03:51:18.245Z,3.63
2019-05-30T03:52:29.149Z,3.90
2019-05-30T03:53:37.001Z,3.90
2019-05-30T03:54:45.801Z,4.20
2019-05-30T03:56:04.577Z,3.53
2019-05-30T03:57:21.284Z,3.43
2019-05-30T03:58:51.469Z,3.80
2019-05-30T04:00:13.586Z,3.20
2019-05-30T04:01:28.226Z,3.67
2019-05-30T04:02:58.695Z,4.00
2019-05-30T04:04:19.053Z,3.63
2019-05-30T04:05:34.909Z,3.13
2019-05-30T04:06:48.109Z,4.07
2019-05-30T04:08:00.987Z,3.83
2019-05-30T04:09:16.330Z,3.90
2019-05-30T04:10:26.119Z,3.70
2019-05-30T04:11:45.127Z,3.53
2019-05-30T04:13:19.534Z,3.77
2019-05-30T04:14:31.650Z,3.67
2019-05-30T04:15:39.566Z,3.43
2019-05-30T04:16:46.980Z,3.57
2019-05-30T04:17:54.771Z,4.10
2019-05-30T04:19:02.102Z,3.60
2019-05-30T04:20:11.517Z,4.17
2019-05-30T04:21:21.508Z,3.73
2019-05-30T04:22:28.620Z,3.77
2019-05-30T04:23:36.031Z,3.97
2019-05-30T04:24:43.807Z,3.83
2019-05-30T04:25:51.219Z,4.00
2019-05-30T04:26:59.024Z,4.87
2019-05-30T04:28:07.881Z,4.03
2019-05-30T04:29:18.362Z,3.90
2019-05-30T04:30:25.446Z,4.40
2019-05-30T04:31:33.256Z,3.50
2019-05-30T04:32:40.696Z,4.30
2019-05-30T04:33:48.477Z,4.33
2019-05-30T04:34:55.881Z,3.80
2019-05-30T04:36:03.700Z,4.23
2019-05-30T04:37:12.519Z,4.43
2019-05-30T04:38:20.482Z,4.57
2019-05-30T04:39:27.941Z,4.23
2019-05-30T04:40:35.717Z,4.83
2019-05-30T04:41:43.176Z,4.50
2019-05-30T04:42:50.993Z,4.20
2019-05-30T04:43:58.400Z,3.90
2019-05-30T04:45:06.468Z,4.40
2019-05-30T04:46:16.022Z,4.20
2019-05-30T04:47:23.377Z,3.90
2019-05-30T04:48:30.792Z,4.20
2019-05-30T04:49:38.578Z,4.10
2019-05-30T04:50:46.021Z,4.43
2019-05-30T04:51:53.826Z,4.33
2019-05-30T04:53:01.254Z,4.37
2019-05-30T04:54:10.326Z,4.27
2019-05-30T04:55:20.594Z,4.07
2019-05-30T04:56:28.958Z,4.20
2019-05-30T04:57:36.438Z,4.47
2019-05-30T04:58:44.233Z,4.63
2019-05-30T04:59:51.630Z,4.63
2019-05-30T05:00:59.422Z,5.60
2019-05-30T05:02:06.834Z,6.33
2019-05-30T05:03:15.464Z,9.07
2019-05-30T05:04:22.946Z,13.77
2019-05-30T05:05:30.761Z,14.47
2019-05-30T05:06:38.267Z,16.80
2019-05-30T05:07:46.097Z,15.53
2019-05-30T05:08:53.516Z,17.20
2019-05-30T05:10:01.330Z,17.27
2019-05-30T05:11:12.470Z,18.23
2019-05-30T05:12:18.306Z,20.90
2019-05-30T05:13:25.678Z,19.30
2019-05-30T05:14:33.502Z,17.07
2019-05-30T05:15:40.913Z,14.93
2019-05-30T05:16:48.748Z,11.03
2019-05-30T05:17:56.183Z,9.67
2019-05-30T05:19:03.982Z,9.47
2019-05-30T05:20:13.038Z,7.07
2019-05-30T05:21:21.096Z,7.40
2019-05-30T05:22:29.648Z,6.67
2019-05-30T05:23:37.444Z,6.70
2019-05-30T05:24:44.851Z,6.67
2019-05-30T05:26:00.823Z,5.87
2019-05-30T05:27:01.764Z,5.90
2019-05-30T05:28:09.566Z,6.10
2019-05-30T05:29:17.942Z,6.10
2019-05-30T05:30:25.886Z,6.33
2019-05-30T05:31:33.308Z,6.33
2019-05-30T05:32:42.202Z,6.13
2019-05-30T05:33:56.531Z,6.20
2019-05-30T05:34:59.605Z,6.03
2019-05-30T05:36:07.148Z,5.70
2019-05-30T05:37:14.975Z,6.17
2019-05-30T05:38:22.516Z,6.07
2019-05-30T05:39:30.384Z,5.03
2019-05-30T05:40:37.821Z,5.93
2019-05-30T05:41:45.646Z,6.63
2019-05-30T05:42:53.117Z,5.93
2019-05-30T05:44:00.997Z,6.00
2019-05-30T05:45:09.004Z,6.60
2019-05-30T05:46:16.819Z,6.73
2019-05-30T05:47:24.623Z,6.60
2019-05-30T05:48:32.436Z,6.73
2019-05-30T05:49:39.860Z,7.70
2019-05-30T05:50:47.668Z,6.43
2019-05-30T05:51:55.093Z,7.03
2019-05-30T05:53:02.917Z,6.97
2019-05-30T05:54:10.322Z,7.27
2019-05-30T05:55:18.785Z,6.67
2019-05-30T05:56:26.347Z,7.27
2019-05-30T05:57:34.173Z,7.13
2019-05-30T05:58:41.595Z,8.00
2019-05-30T05:59:49.395Z,7.40
2019-05-30T06:00:56.800Z,7.47
2019-05-30T06:02:04.612Z,6.63
2019-05-30T06:03:12.029Z,6.83
2019-05-30T06:04:21.015Z,7.00
2019-05-30T06:05:28.647Z,7.53
2019-05-30T06:06:36.466Z,7.20
2019-05-30T06:07:43.903Z,9.20
2019-05-30T06:08:51.762Z,7.93
2019-05-30T06:09:59.197Z,7.43
2019-05-30T06:11:07.009Z,8.03
2019-05-30T06:12:14.416Z,6.77
2019-05-30T06:13:22.945Z,8.20
2019-05-30T06:14:30.528Z,7.70
2019-05-30T06:15:38.311Z,7.17
2019-05-30T06:16:45.733Z,7.80
2019-05-30T06:17:53.513Z,7.73
2019-05-30T06:19:00.933Z,7.37
2019-05-30T06:20:09.179Z,7.73
2019-05-30T06:21:17.265Z,7.20
2019-05-30T06:22:25.597Z,6.37
2019-05-30T06:23:33.091Z,6.63
2019-05-30T06:24:41.306Z,7.20
2019-05-30T06:25:49.778Z,6.20
2019-05-30T06:26:57.589Z,6.17
2019-05-30T06:28:05.012Z,5.90
2019-05-30T06:29:12.836Z,6.50
2019-05-30T06:30:20.757Z,6.40
2019-05-30T06:31:28.751Z,6.50
2019-05-30T06:32:36.257Z,6.30
2019-05-30T06:33:44.074Z,5.60
2019-05-30T06:34:51.472Z,6.27
2019-05-30T06:35:59.297Z,5.70
2019-05-30T06:37:06.704Z,7.20
2019-05-30T06:38:14.500Z,6.03
2019-05-30T06:39:21.953Z,5.07
2019-05-30T06:40:30.916Z,5.80
2019-05-30T06:41:38.921Z,5.70
2019-05-30T06:42:46.767Z,6.47
2019-05-30T06:43:54.185Z,6.43
2019-05-30T06:45:01.995Z,6.20
2019-05-30T06:46:09.775Z,5.57
2019-05-30T06:47:17.590Z,5.13
2019-05-30T06:48:25.014Z,4.93
2019-05-30T06:49:32.821Z,4.90
2019-05-30T06:50:40.239Z,4.53
2019-05-30T06:51:48.050Z,4.70
2019-05-30T06:52:55.474Z,4.70
2019-05-30T06:54:03.282Z,4.93
2019-05-30T06:55:10.901Z,4.03
2019-05-30T06:56:18.768Z,4.93
2019-05-30T06:57:27.304Z,4.47
2019-05-30T06:58:48.053Z,4.20
2019-05-30T06:59:44.244Z,4.10
2019-05-30T07:00:52.044Z,4.13
2019-05-30T07:01:59.478Z,3.97
2019-05-30T07:03:08.363Z,4.07
2019-05-30T07:04:16.217Z,4.00
2019-05-30T07:05:26.306Z,3.73
2019-05-30T07:06:33.969Z,4.40
2019-05-30T07:07:42.135Z,3.80
2019-05-30T07:08:49.701Z,4.57
2019-05-30T07:09:57.482Z,4.90
2019-05-30T07:11:04.888Z,3.83
2019-05-30T07:12:12.714Z,3.67
2019-05-30T07:13:20.135Z,6.13
2019-05-30T07:14:29.242Z,3.63
2019-05-30T07:15:36.857Z,4.20
2019-05-30T07:16:44.650Z,4.17
2019-05-30T07:17:52.069Z,4.47
2019-05-30T07:18:59.883Z,4.20
2019-05-30T07:20:09.979Z,4.47
2019-05-30T07:21:17.767Z,3.93
2019-05-30T07:22:25.589Z,3.97
2019-05-30T07:23:34.044Z,3.77
2019-05-30T07:24:42.566Z,3.70
2019-05-30T07:25:50.375Z,3.40
2019-05-30T07:26:57.799Z,4.20
2019-05-30T07:28:05.604Z,3.90
2019-05-30T07:29:13.014Z,4.37
2019-05-30T07:30:21.145Z,3.33
2019-05-30T07:31:28.581Z,3.20
2019-05-30T07:32:36.406Z,4.13
2019-05-30T07:33:43.814Z,4.00
2019-05-30T07:35:05.585Z,3.33
2019-05-30T07:36:00.705Z,4.07
2019-05-30T07:37:08.546Z,3.60
2019-05-30T07:38:15.953Z,5.17
2019-05-30T07:39:26.485Z,3.60
2019-05-30T07:40:32.920Z,4.00
2019-05-30T07:41:40.660Z,3.40
2019-05-30T07:42:48.308Z,3.50
2019-05-30T07:43:57.227Z,3.50
2019-05-30T07:45:05.488Z,3.63
2019-05-30T07:46:13.305Z,3.27
2019-05-30T07:47:20.737Z,3.33
2019-05-30T07:48:30.197Z,2.70
2019-05-30T07:49:38.655Z,3.00
2019-05-30T07:50:47.667Z,3.30
2019-05-30T07:51:55.088Z,3.23
2019-05-30T07:53:02.899Z,3.13
2019-05-30T07:54:10.344Z,3.20
2019-05-30T07:55:19.222Z,3.20
2019-05-30T07:56:26.978Z,3.87
2019-05-30T07:57:34.784Z,3.57
2019-05-30T07:58:42.192Z,3.47
2019-05-30T07:59:50.030Z,2.83
2019-05-30T08:00:57.467Z,2.13
2019-05-30T08:02:05.368Z,2.40
2019-05-30T08:03:12.804Z,2.50
2019-05-30T08:04:21.426Z,2.83
2019-05-30T08:05:28.848Z,2.20
2019-05-30T08:06:37.810Z,2.47
2019-05-30T08:07:45.337Z,2.50
2019-05-30T08:08:53.120Z,3.30
2019-05-30T08:10:00.550Z,3.73
2019-05-30T08:11:10.333Z,2.87
2019-05-30T08:12:20.468Z,2.87
2019-05-30T08:13:29.018Z,1.20
2019-05-30T08:14:37.391Z,1.87
2019-05-30T08:15:45.266Z,1.53
2019-05-30T08:16:52.704Z,1.73
2019-05-30T08:18:00.515Z,1.57
2019-05-30T08:19:07.937Z,1.60
2019-05-30T08:20:16.271Z,1.60
2019-05-30T08:21:23.709Z,3.00
2019-05-30T08:22:31.888Z,1.80
2019-05-30T08:23:39.402Z,1.87
2019-05-30T08:24:47.215Z,2.10
2019-05-30T08:25:54.634Z,2.13
2019-05-30T08:27:02.431Z,2.33
2019-05-30T08:28:09.852Z,1.80
2019-05-30T08:29:17.648Z,2.20
2019-05-30T08:30:25.854Z,1.57
2019-05-30T08:31:34.579Z,2.57
2019-05-30T08:32:42.267Z,1.70
2019-05-30T08:33:50.078Z,1.80
2019-05-30T08:34:57.514Z,1.70
2019-05-30T08:36:05.822Z,1.77
2019-05-30T08:37:13.440Z,1.60
2019-05-30T08:38:21.247Z,1.73
2019-05-30T08:39:28.972Z,1.67
2019-05-30T08:40:37.714Z,1.80
2019-05-30T08:41:45.206Z,1.77
2019-05-30T08:42:53.017Z,2.67
2019-05-30T08:44:00.443Z,2.90
2019-05-30T08:45:10.084Z,2.57
2019-05-30T08:46:17.702Z,2.83
2019-05-30T08:47:25.574Z,1.87
2019-05-30T08:48:34.452Z,2.27
2019-05-30T08:49:42.419Z,2.23
2019-05-30T08:50:49.826Z,1.93
2019-05-30T08:51:57.627Z,2.43
2019-05-30T08:53:05.150Z,2.67
2019-05-30T08:54:14.092Z,1.70
2019-05-30T08:55:21.671Z,1.90
2019-05-30T08:56:30.292Z,1.40
2019-05-30T08:57:38.707Z,1.70
2019-05-30T08:58:46.528Z,1.97
2019-05-30T08:59:53.948Z,1.70
2019-05-30T09:01:01.775Z,2.63
2019-05-30T09:02:09.230Z,1.57
2019-05-30T09:03:17.068Z,3.30
2019-05-30T09:04:24.493Z,1.80
2019-05-30T09:05:32.272Z,3.00
2019-05-30T09:06:39.960Z,3.67
2019-05-30T09:07:47.877Z,1.80
2019-05-30T09:08:55.317Z,2.03
2019-05-30T09:10:03.109Z,2.23
2019-05-30T09:11:10.530Z,1.93
2019-05-30T09:12:18.330Z,1.90
2019-05-30T09:13:25.746Z,2.33
2019-05-30T09:14:33.573Z,1.80
2019-05-30T09:15:41.140Z,2.33
2019-05-30T09:16:49.595Z,1.63
2019-05-30T09:17:57.449Z,1.60
2019-05-30T09:19:05.343Z,2.20
2019-05-30T09:20:15.614Z,2.53
2019-05-30T09:21:23.431Z,1.57
2019-05-30T09:22:30.832Z,1.60
2019-05-30T09:23:40.330Z,1.87
2019-05-30T09:24:48.164Z,2.03
2019-05-30T09:25:56.139Z,1.73
2019-05-30T09:27:03.531Z,1.73
2019-05-30T09:28:11.342Z,2.43
2019-05-30T09:29:18.768Z,1.73
2019-05-30T09:30:27.487Z,1.80
2019-05-30T09:31:34.932Z,1.63
2019-05-30T09:32:43.408Z,1.83
2019-05-30T09:33:51.990Z,2.30
2019-05-30T09:34:59.788Z,2.00
2019-05-30T09:36:13.352Z,2.10
2019-05-30T09:37:16.745Z,1.80
2019-05-30T09:38:24.226Z,1.60
2019-05-30T09:39:32.006Z,1.20
2019-05-30T09:40:40.847Z,1.80
2019-05-30T09:41:49.950Z,1.77
2019-05-30T09:42:57.377Z,1.60
2019-05-30T09:44:05.378Z,1.60
2019-05-30T09:45:14.902Z,3.10
2019-05-30T09:46:22.698Z,1.70
2019-05-30T09:47:30.120Z,2.00
2019-05-30T09:48:37.956Z,2.67
2019-05-30T09:49:46.485Z,1.70
2019-05-30T09:50:54.435Z,2.67
2019-05-30T09:52:01.840Z,2.43
2019-05-30T09:53:09.667Z,1.60
2019-05-30T09:54:17.208Z,1.60
2019-05-30T09:55:25.306Z,2.13
2019-05-30T09:56:32.792Z,1.73
2019-05-30T09:57:42.341Z,2.37
2019-05-30T09:58:51.767Z,2.30
2019-05-30T09:59:59.775Z,1.97
2019-05-30T10:01:07.423Z,2.10
2019-05-30T10:02:15.279Z,1.67
2019-05-30T10:03:22.685Z,2.17
2019-05-30T10:04:30.508Z,2.13
2019-05-30T10:05:37.932Z,1.83
2019-05-30T10:06:46.344Z,1.60
2019-05-30T10:07:53.857Z,1.60
2019-05-30T10:09:01.874Z,1.80
2019-05-30T10:10:11.500Z,1.77
2019-05-30T10:11:19.418Z,1.30
2019-05-30T10:12:26.841Z,1.50
2019-05-30T10:13:34.631Z,1.63
2019-05-30T10:14:42.041Z,1.13
2019-05-30T10:15:50.520Z,1.70
2019-05-30T10:16:58.224Z,3.07
2019-05-30T10:18:05.996Z,1.50
2019-05-30T10:19:14.513Z,1.40
2019-05-30T10:20:23.231Z,1.37
2019-05-30T10:21:30.653Z,1.37
2019-05-30T10:22:38.443Z,1.37
2019-05-30T10:23:47.575Z,2.23
2019-05-30T10:24:55.385Z,1.37
2019-05-30T10:26:02.854Z,1.10
2019-05-30T10:27:10.708Z,1.23
2019-05-30T10:28:18.156Z,1.37
2019-05-30T10:29:25.956Z,1.60
2019-05-30T10:30:34.649Z,1.83
2019-05-30T10:31:42.479Z,1.60
2019-05-30T10:32:50.347Z,1.20
2019-05-30T10:34:00.484Z,2.40
2019-05-30T10:35:09.047Z,2.30
2019-05-30T10:36:19.877Z,1.43
2019-05-30T10:37:26.008Z,1.63
2019-05-30T10:38:33.813Z,1.40
2019-05-30T10:39:41.221Z,1.50
2019-05-30T10:40:50.385Z,1.63
2019-05-30T10:41:58.988Z,1.40
2019-05-30T10:43:08.547Z,1.77
2019-05-30T10:44:16.096Z,2.13
2019-05-30T10:45:25.406Z,1.47
2019-05-30T10:46:32.812Z,1.53
2019-05-30T10:47:40.699Z,1.50
2019-05-30T10:48:49.153Z,1.30
2019-05-30T10:49:57.871Z,1.50
2019-05-30T10:51:05.318Z,2.73
2019-05-30T10:52:13.099Z,1.87
2019-05-30T10:53:20.703Z,1.60
2019-05-30T10:54:28.485Z,1.67
2019-05-30T10:55:35.908Z,1.40
2019-05-30T10:56:43.713Z,1.50
2019-05-30T10:57:51.746Z,1.67
2019-05-30T10:58:59.607Z,2.63
2019-05-30T11:00:10.098Z,1.40
2019-05-30T11:01:18.605Z,1.93
2019-05-30T11:02:26.030Z,1.43
2019-05-30T11:03:33.809Z,1.80
2019-05-30T11:04:41.230Z,1.60
2019-05-30T11:06:00.951Z,1.70
2019-05-30T11:07:31.011Z,1.50
2019-05-30T11:08:41.805Z,3.60
2019-05-30T11:09:57.394Z,1.43
2019-05-30T11:11:05.289Z,1.37
2019-05-30T11:12:12.775Z,1.33
2019-05-30T11:13:21.076Z,1.50
2019-05-30T11:14:28.483Z,1.97
2019-05-30T11:15:36.308Z,1.40
2019-05-30T11:16:43.819Z,2.90
2019-05-30T11:17:53.351Z,1.40
2019-05-30T11:19:00.751Z,1.40
2019-05-30T11:20:08.858Z,1.50
2019-05-30T11:21:16.280Z,1.77
2019-05-30T11:22:24.122Z,1.47
2019-05-30T11:23:31.543Z,1.30
2019-05-30T11:24:39.353Z,1.50
2019-05-30T11:25:46.761Z,1.40
2019-05-30T11:26:55.553Z,1.20
2019-05-30T11:28:03.700Z,1.57
2019-05-30T11:29:11.497Z,1.60
2019-05-30T11:30:19.024Z,1.40
2019-05-30T11:31:26.834Z,1.30
2019-05-30T11:32:34.256Z,1.27
2019-05-30T11:33:42.051Z,1.43
2019-05-30T11:34:49.473Z,1.53
2019-05-30T11:35:57.288Z,1.70
2019-05-30T11:37:18.247Z,1.53
2019-05-30T11:38:14.244Z,1.33
2019-05-30T11:39:21.671Z,2.30
2019-05-30T11:40:29.459Z,1.90
2019-05-30T11:41:36.916Z,1.50
2019-05-30T11:42:44.710Z,2.03
2019-05-30T11:43:53.507Z,1.63
2019-05-30T11:45:01.440Z,1.20
2019-05-30T11:46:08.918Z,1.30
2019-05-30T11:47:16.715Z,1.43
2019-05-30T11:48:24.165Z,1.50
2019-05-30T11:49:31.965Z,1.50
2019-05-30T11:50:39.373Z,1.30
2019-05-30T11:51:47.182Z,1.60
2019-05-30T11:52:55.782Z,2.27
2019-05-30T11:54:03.792Z,1.37
2019-05-30T11:55:11.542Z,1.03
2019-05-30T11:56:19.368Z,1.10
2019-05-30T11:57:26.799Z,1.30
2019-05-30T11:58:34.602Z,1.37
2019-05-30T11:59:42.023Z,1.50
2019-05-30T12:00:50.230Z,1.27
2019-05-30T12:01:58.501Z,1.43
2019-05-30T12:03:06.853Z,1.33
2019-05-30T12:04:14.310Z,1.43
2019-05-30T12:05:22.612Z,1.93
2019-05-30T12:06:29.999Z,1.37
2019-05-30T12:07:37.832Z,1.20
2019-05-30T12:08:46.328Z,1.63
2019-05-30T12:09:54.840Z,1.13
2019-05-30T12:11:02.325Z,1.10
2019-05-30T12:12:10.149Z,1.17
2019-05-30T12:13:17.577Z,1.30
2019-05-30T12:14:25.389Z,1.50
2019-05-30T12:15:32.833Z,0.97
2019-05-30T12:16:40.629Z,0.97
2019-05-30T12:17:48.053Z,1.60
2019-05-30T12:18:55.887Z,2.10
2019-05-30T12:20:03.311Z,2.00
2019-05-30T12:21:11.115Z,1.07
2019-05-30T12:22:18.515Z,1.30
2019-05-30T12:23:26.339Z,0.90
2019-05-30T12:24:33.764Z,1.50
2019-05-30T12:25:41.696Z,1.47
2019-05-30T12:26:49.115Z,1.33
2019-05-30T12:27:58.038Z,2.03
2019-05-30T12:29:05.995Z,1.17
2019-05-30T12:30:14.796Z,1.50
2019-05-30T12:31:22.202Z,1.43
2019-05-30T12:32:29.985Z,1.50
2019-05-30T12:33:37.510Z,2.23
2019-05-30T12:34:45.308Z,1.57
2019-05-30T12:35:52.712Z,1.30
2019-05-30T12:37:00.608Z,1.67
2019-05-30T12:38:08.011Z,1.40
2019-05-30T12:39:15.816Z,1.77
2019-05-30T12:40:23.837Z,1.30
2019-05-30T12:41:31.647Z,1.30
2019-05-30T12:42:39.058Z,1.80
2019-05-30T12:43:46.866Z,1.60
2019-05-30T12:44:55.008Z,2.73
2019-05-30T12:46:03.286Z,1.63
2019-05-30T12:47:10.855Z,1.10
2019-05-30T12:48:18.799Z,3.37
2019-05-30T12:49:26.252Z,1.33
2019-05-30T12:50:34.062Z,1.30
2019-05-30T12:51:41.485Z,1.10
2019-05-30T12:52:49.300Z,1.37
2019-05-30T12:53:58.477Z,1.30
2019-05-30T12:55:07.108Z,1.13
2019-05-30T12:56:14.513Z,2.27
2019-05-30T12:57:22.311Z,1.30
2019-05-30T12:58:29.730Z,1.30
2019-05-30T12:59:37.544Z,1.20
2019-05-30T13:00:45.667Z,1.43
2019-05-30T13:01:54.672Z,2.30
2019-05-30T13:03:03.166Z,1.60
2019-05-30T13:04:11.081Z,1.90
2019-05-30T13:05:19.386Z,1.23
2019-05-30T13:06:27.228Z,2.23
2019-05-30T13:07:34.654Z,1.60
2019-05-30T13:08:42.444Z,1.60
2019-05-30T13:09:49.885Z,1.80
2019-05-30T13:10:57.691Z,1.63
2019-05-30T13:12:05.147Z,1.73
2019-05-30T13:13:12.956Z,2.30
2019-05-30T13:14:20.392Z,1.50
2019-05-30T13:15:28.336Z,4.43
2019-05-30T13:16:35.746Z,1.37
2019-05-30T13:17:43.569Z,1.43
2019-05-30T13:18:50.988Z,1.60
2019-05-30T13:19:59.100Z,1.37
2019-05-30T13:21:06.868Z,1.40
2019-05-30T13:22:14.691Z,1.30
2019-05-30T13:23:22.096Z,1.27
2019-05-30T13:24:29.896Z,1.30
2019-05-30T13:25:37.418Z,1.20
2019-05-30T13:26:45.230Z,1.80
2019-05-30T13:27:52.650Z,1.40
2019-05-30T13:29:00.478Z,1.63
2019-05-30T13:30:09.232Z,1.80
2019-05-30T13:31:17.043Z,1.80
2019-05-30T13:32:24.467Z,1.57
2019-05-30T13:33:32.292Z,1.80
2019-05-30T13:34:39.711Z,1.60
2019-05-30T13:35:47.597Z,2.20
2019-05-30T13:36:55.040Z,1.67
2019-05-30T13:38:03.236Z,1.40
2019-05-30T13:39:10.834Z,1.57
2019-05-30T13:40:25.481Z,1.73
2019-05-30T13:41:29.367Z,1.13
2019-05-30T13:42:37.166Z,2.50
2019-05-30T13:43:44.630Z,1.40
2019-05-30T13:44:52.425Z,1.10
2019-05-30T13:46:00.201Z,1.50
2019-05-30T13:47:08.823Z,4.23
2019-05-30T13:48:16.385Z,1.50
2019-05-30T13:49:24.270Z,1.50
2019-05-30T13:50:31.689Z,2.20
2019-05-30T13:51:39.503Z,1.57
2019-05-30T13:52:46.953Z,1.47
2019-05-30T13:53:54.823Z,1.20
2019-05-30T13:55:03.537Z,1.60
2019-05-30T13:56:12.620Z,1.33
2019-05-30T13:57:20.045Z,1.40
2019-05-30T13:58:27.841Z,1.30
2019-05-30T13:59:35.288Z,1.30
2019-05-30T14:00:43.115Z,1.43
2019-05-30T14:01:50.595Z,1.60
2019-05-30T14:02:59.854Z,1.63
2019-05-30T14:04:08.230Z,1.67
2019-05-30T14:05:18.108Z,1.33
2019-05-30T14:06:25.531Z,1.67
2019-05-30T14:07:33.330Z,1.00
2019-05-30T14:08:42.016Z,1.40
2019-05-30T14:09:50.510Z,1.80
2019-05-30T14:10:57.960Z,1.40
2019-05-30T14:12:06.741Z,1.60
2019-05-30T14:13:14.213Z,1.47
2019-05-30T14:14:22.023Z,1.63
2019-05-30T14:15:29.458Z,1.37
2019-05-30T14:16:37.314Z,1.53
2019-05-30T14:17:44.794Z,1.43
2019-05-30T14:18:52.591Z,2.53
2019-05-30T14:20:00.773Z,1.20
2019-05-30T14:21:09.345Z,1.40
2019-05-30T14:22:16.853Z,1.40
2019-05-30T14:23:24.660Z,2.43
2019-05-30T14:24:32.101Z,1.50
2019-05-30T14:25:39.928Z,1.20
2019-05-30T14:26:47.359Z,1.73
2019-05-30T14:27:55.214Z,2.03
2019-05-30T14:29:03.873Z,1.83
2019-05-30T14:30:13.222Z,1.50
2019-05-30T14:31:20.718Z,1.27
2019-05-30T14:32:28.516Z,1.27
2019-05-30T14:33:35.964Z,1.27
2019-05-30T14:34:43.775Z,1.30
2019-05-30T14:35:51.212Z,1.77
2019-05-30T14:36:58.998Z,1.10
2019-05-30T14:38:06.688Z,1.63
2019-05-30T14:39:14.510Z,1.20
2019-05-30T14:40:22.245Z,1.00
2019-05-30T14:41:30.056Z,1.40
2019-05-30T14:42:37.509Z,0.90
2019-05-30T14:43:45.288Z,1.30
2019-05-30T14:44:52.725Z,1.43
2019-05-30T14:46:00.580Z,1.33
2019-05-30T14:47:08.329Z,1.13
2019-05-30T14:48:16.930Z,0.93
2019-05-30T14:49:24.373Z,1.43
2019-05-30T14:50:32.185Z,1.00
2019-05-30T14:51:39.625Z,1.00
2019-05-30T14:52:47.746Z,1.17
2019-05-30T14:53:55.140Z,1.67
2019-05-30T14:55:02.952Z,2.83
2019-05-30T14:56:11.136Z,1.10
2019-05-30T14:57:19.141Z,1.17
2019-05-30T14:58:26.591Z,1.27
2019-05-30T14:59:34.402Z,1.10
2019-05-30T15:00:42.424Z,1.30
2019-05-30T15:01:50.225Z,1.03
2019-05-30T15:02:57.640Z,1.43
2019-05-30T15:04:05.455Z,1.27
2019-05-30T15:05:13.987Z,1.27
2019-05-30T15:06:21.834Z,1.23
2019-05-30T15:07:29.232Z,1.20
2019-05-30T15:08:37.059Z,1.03